sensor_id;sensor_type;location;lat;lon;timestamp;temperature;humidity
67868;SHT31;54672;46.096;14.470;2022-08-21T00:01:48;18.34;89.82
67868;SHT31;54672;46.096;14.470;2022-08-21T00:04:14;18.30;89.97
67868;SHT31;54672;46.096;14.470;2022-08-21T00:06:39;18.28;89.94
67868;SHT31;54672;46.096;14.470;2022-08-21T00:09:07;18.23;90.15
67868;SHT31;54672;46.096;14.470;2022-08-21T00:11:37;18.22;90.31
67868;SHT31;54672;46.096;14.470;2022-08-21T00:14:06;18.15;90.09
67868;SHT31;54672;46.096;14.470;2022-08-21T00:16:32;18.10;90.27
67868;SHT31;54672;46.096;14.470;2022-08-21T00:18:57;18.05;90.34
67868;SHT31;54672;46.096;14.470;2022-08-21T00:21:23;18.03;90.21
67868;SHT31;54672;46.096;14.470;2022-08-21T00:23:50;18.01;90.30
67868;SHT31;54672;46.096;14.470;2022-08-21T00:26:16;17.93;90.60
67868;SHT31;54672;46.096;14.470;2022-08-21T00:28:42;17.89;90.85
67868;SHT31;54672;46.096;14.470;2022-08-21T00:31:08;17.88;90.74
67868;SHT31;54672;46.096;14.470;2022-08-21T00:33:33;17.84;90.78
67868;SHT31;54672;46.096;14.470;2022-08-21T00:35:59;17.75;91.17
67868;SHT31;54672;46.096;14.470;2022-08-21T00:38:25;17.75;91.00
67868;SHT31;54672;46.096;14.470;2022-08-21T00:40:56;17.82;90.63
67868;SHT31;54672;46.096;14.470;2022-08-21T00:43:27;17.88;90.13
67868;SHT31;54672;46.096;14.470;2022-08-21T00:45:54;17.92;89.16
67868;SHT31;54672;46.096;14.470;2022-08-21T00:48:20;17.89;88.78
67868;SHT31;54672;46.096;14.470;2022-08-21T00:50:52;17.86;88.88
67868;SHT31;54672;46.096;14.470;2022-08-21T00:53:19;17.78;89.38
67868;SHT31;54672;46.096;14.470;2022-08-21T00:55:45;17.71;89.92
67868;SHT31;54672;46.096;14.470;2022-08-21T00:58:13;17.64;90.14
67868;SHT31;54672;46.096;14.470;2022-08-21T01:00:42;17.54;90.36
67868;SHT31;54672;46.096;14.470;2022-08-21T01:03:11;17.50;90.72
67868;SHT31;54672;46.096;14.470;2022-08-21T01:05:38;17.57;90.24
67868;SHT31;54672;46.096;14.470;2022-08-21T01:08:04;17.55;89.93
67868;SHT31;54672;46.096;14.470;2022-08-21T01:10:31;17.48;90.46
67868;SHT31;54672;46.096;14.470;2022-08-21T01:12:57;17.50;90.76
67868;SHT31;54672;46.096;14.470;2022-08-21T01:15:27;17.51;90.90
67868;SHT31;54672;46.096;14.470;2022-08-21T01:17:55;17.47;91.00
67868;SHT31;54672;46.096;14.470;2022-08-21T01:20:21;17.44;91.18
67868;SHT31;54672;46.096;14.470;2022-08-21T01:22:46;17.41;91.24
67868;SHT31;54672;46.096;14.470;2022-08-21T01:25:14;17.40;91.51
67868;SHT31;54672;46.096;14.470;2022-08-21T01:27:40;17.35;91.56
67868;SHT31;54672;46.096;14.470;2022-08-21T01:30:13;17.30;91.53
67868;SHT31;54672;46.096;14.470;2022-08-21T01:32:40;17.27;91.86
67868;SHT31;54672;46.096;14.470;2022-08-21T01:35:06;17.27;91.99
67868;SHT31;54672;46.096;14.470;2022-08-21T01:37:32;17.26;92.13
67868;SHT31;54672;46.096;14.470;2022-08-21T01:39:58;17.23;91.91
67868;SHT31;54672;46.096;14.470;2022-08-21T01:42:23;17.20;92.59
67868;SHT31;54672;46.096;14.470;2022-08-21T01:44:49;17.16;92.46
67868;SHT31;54672;46.096;14.470;2022-08-21T01:47:15;17.16;92.75
67868;SHT31;54672;46.096;14.470;2022-08-21T01:49:41;17.13;93.40
67868;SHT31;54672;46.096;14.470;2022-08-21T01:52:08;17.07;93.24
67868;SHT31;54672;46.096;14.470;2022-08-21T01:54:33;17.07;93.16
67868;SHT31;54672;46.096;14.470;2022-08-21T01:57:00;17.02;92.99
67868;SHT31;54672;46.096;14.470;2022-08-21T01:59:26;16.94;92.97
67868;SHT31;54672;46.096;14.470;2022-08-21T02:01:52;16.90;93.00
67868;SHT31;54672;46.096;14.470;2022-08-21T02:04:19;16.89;93.15
67868;SHT31;54672;46.096;14.470;2022-08-21T02:06:44;16.87;93.01
67868;SHT31;54672;46.096;14.470;2022-08-21T02:09:11;16.85;93.08
67868;SHT31;54672;46.096;14.470;2022-08-21T02:11:37;16.85;93.31
67868;SHT31;54672;46.096;14.470;2022-08-21T02:14:14;16.89;94.13
67868;SHT31;54672;46.096;14.470;2022-08-21T02:16:41;16.83;93.97
67868;SHT31;54672;46.096;14.470;2022-08-21T02:19:08;16.87;94.48
67868;SHT31;54672;46.096;14.470;2022-08-21T02:21:33;16.89;95.25
67868;SHT31;54672;46.096;14.470;2022-08-21T02:23:59;16.83;95.58
67868;SHT31;54672;46.096;14.470;2022-08-21T02:26:24;16.77;95.66
67868;SHT31;54672;46.096;14.470;2022-08-21T02:28:50;16.77;95.56
67868;SHT31;54672;46.096;14.470;2022-08-21T02:31:15;16.80;95.57
67868;SHT31;54672;46.096;14.470;2022-08-21T02:33:41;16.73;95.72
67868;SHT31;54672;46.096;14.470;2022-08-21T02:36:08;16.75;95.56
67868;SHT31;54672;46.096;14.470;2022-08-21T02:38:36;16.80;95.57
67868;SHT31;54672;46.096;14.470;2022-08-21T02:41:08;16.92;95.31
67868;SHT31;54672;46.096;14.470;2022-08-21T02:43:34;17.17;94.37
67868;SHT31;54672;46.096;14.470;2022-08-21T02:46:00;17.17;93.48
67868;SHT31;54672;46.096;14.470;2022-08-21T02:48:29;17.07;93.28
67868;SHT31;54672;46.096;14.470;2022-08-21T02:50:58;17.10;93.34
67868;SHT31;54672;46.096;14.470;2022-08-21T02:53:25;17.04;93.30
67868;SHT31;54672;46.096;14.470;2022-08-21T02:55:51;17.02;93.28
67868;SHT31;54672;46.096;14.470;2022-08-21T02:58:21;17.00;93.14
67868;SHT31;54672;46.096;14.470;2022-08-21T03:00:49;16.96;93.32
67868;SHT31;54672;46.096;14.470;2022-08-21T03:03:15;16.97;93.41
67868;SHT31;54672;46.096;14.470;2022-08-21T03:05:41;16.94;93.34
67868;SHT31;54672;46.096;14.470;2022-08-21T03:08:09;16.92;93.38
67868;SHT31;54672;46.096;14.470;2022-08-21T03:10:37;16.87;93.52
67868;SHT31;54672;46.096;14.470;2022-08-21T03:13:03;16.87;93.64
67868;SHT31;54672;46.096;14.470;2022-08-21T03:15:29;16.86;93.78
67868;SHT31;54672;46.096;14.470;2022-08-21T03:17:55;16.87;93.82
67868;SHT31;54672;46.096;14.470;2022-08-21T03:20:23;16.86;93.91
67868;SHT31;54672;46.096;14.470;2022-08-21T03:22:49;16.96;93.88
67868;SHT31;54672;46.096;14.470;2022-08-21T03:25:15;17.12;93.24
67868;SHT31;54672;46.096;14.470;2022-08-21T03:27:42;17.16;92.76
67868;SHT31;54672;46.096;14.470;2022-08-21T03:30:08;16.97;93.04
67868;SHT31;54672;46.096;14.470;2022-08-21T03:32:34;16.85;93.62
67868;SHT31;54672;46.096;14.470;2022-08-21T03:35:00;16.79;93.44
67868;SHT31;54672;46.096;14.470;2022-08-21T03:37:27;16.72;93.54
67868;SHT31;54672;46.096;14.470;2022-08-21T03:39:52;16.65;93.70
67868;SHT31;54672;46.096;14.470;2022-08-21T03:42:18;16.61;93.72
67868;SHT31;54672;46.096;14.470;2022-08-21T03:44:43;16.65;93.93
67868;SHT31;54672;46.096;14.470;2022-08-21T03:47:09;16.61;94.11
67868;SHT31;54672;46.096;14.470;2022-08-21T03:49:35;16.63;94.15
67868;SHT31;54672;46.096;14.470;2022-08-21T03:52:01;16.59;94.14
67868;SHT31;54672;46.096;14.470;2022-08-21T03:54:26;16.63;94.44
67868;SHT31;54672;46.096;14.470;2022-08-21T03:56:52;16.71;94.32
67868;SHT31;54672;46.096;14.470;2022-08-21T03:59:17;16.79;93.89
67868;SHT31;54672;46.096;14.470;2022-08-21T04:02:00;16.77;93.51
67868;SHT31;54672;46.096;14.470;2022-08-21T04:04:28;16.75;93.62
67868;SHT31;54672;46.096;14.470;2022-08-21T04:06:54;16.77;93.75
67868;SHT31;54672;46.096;14.470;2022-08-21T04:09:20;16.79;94.00
67868;SHT31;54672;46.096;14.470;2022-08-21T04:11:46;16.87;93.94
67868;SHT31;54672;46.096;14.470;2022-08-21T04:14:13;16.87;93.79
67868;SHT31;54672;46.096;14.470;2022-08-21T04:16:40;16.93;93.40
67868;SHT31;54672;46.096;14.470;2022-08-21T04:19:06;16.93;93.32
67868;SHT31;54672;46.096;14.470;2022-08-21T04:21:31;17.09;93.15
67868;SHT31;54672;46.096;14.470;2022-08-21T04:23:57;17.26;92.41
67868;SHT31;54672;46.096;14.470;2022-08-21T04:26:24;17.24;92.19
67868;SHT31;54672;46.096;14.470;2022-08-21T04:28:50;17.26;92.21
67868;SHT31;54672;46.096;14.470;2022-08-21T04:31:16;17.26;92.12
67868;SHT31;54672;46.096;14.470;2022-08-21T04:33:41;17.24;92.33
67868;SHT31;54672;46.096;14.470;2022-08-21T04:36:07;17.17;92.80
67868;SHT31;54672;46.096;14.470;2022-08-21T04:38:33;17.34;92.74
67868;SHT31;54672;46.096;14.470;2022-08-21T04:40:58;17.95;91.30
67868;SHT31;54672;46.096;14.470;2022-08-21T04:43:24;17.91;90.47
67868;SHT31;54672;46.096;14.470;2022-08-21T04:45:50;17.89;90.28
67868;SHT31;54672;46.096;14.470;2022-08-21T04:48:20;17.85;90.44
67868;SHT31;54672;46.096;14.470;2022-08-21T04:53:45;17.71;91.13
67868;SHT31;54672;46.096;14.470;2022-08-21T04:56:28;17.72;90.99
67868;SHT31;54672;46.096;14.470;2022-08-21T04:58:59;17.72;90.39
67868;SHT31;54672;46.096;14.470;2022-08-21T05:01:27;17.77;90.24
67868;SHT31;54672;46.096;14.470;2022-08-21T05:03:56;17.88;89.79
67868;SHT31;54672;46.096;14.470;2022-08-21T05:06:22;17.93;89.45
67868;SHT31;54672;46.096;14.470;2022-08-21T05:08:50;17.98;89.41
67868;SHT31;54672;46.096;14.470;2022-08-21T05:11:17;18.12;88.69
67868;SHT31;54672;46.096;14.470;2022-08-21T05:13:43;18.13;88.47
67868;SHT31;54672;46.096;14.470;2022-08-21T05:16:08;18.12;88.17
67868;SHT31;54672;46.096;14.470;2022-08-21T05:18:34;18.15;88.16
67868;SHT31;54672;46.096;14.470;2022-08-21T05:21:00;18.15;88.11
67868;SHT31;54672;46.096;14.470;2022-08-21T05:23:25;18.09;88.43
67868;SHT31;54672;46.096;14.470;2022-08-21T05:25:52;18.10;88.58
67868;SHT31;54672;46.096;14.470;2022-08-21T05:28:17;18.12;88.52
67868;SHT31;54672;46.096;14.470;2022-08-21T05:30:43;18.09;88.64
67868;SHT31;54672;46.096;14.470;2022-08-21T05:33:09;18.17;87.64
67868;SHT31;54672;46.096;14.470;2022-08-21T05:35:35;18.26;86.84
67868;SHT31;54672;46.096;14.470;2022-08-21T05:38:02;18.26;86.99
67868;SHT31;54672;46.096;14.470;2022-08-21T05:40:27;18.33;86.49
67868;SHT31;54672;46.096;14.470;2022-08-21T05:42:54;18.43;85.54
67868;SHT31;54672;46.096;14.470;2022-08-21T05:45:24;18.46;86.49
67868;SHT31;54672;46.096;14.470;2022-08-21T05:47:50;18.50;87.59
67868;SHT31;54672;46.096;14.470;2022-08-21T05:50:16;18.59;87.48
67868;SHT31;54672;46.096;14.470;2022-08-21T05:52:41;18.75;86.45
67868;SHT31;54672;46.096;14.470;2022-08-21T05:55:07;18.88;85.19
67868;SHT31;54672;46.096;14.470;2022-08-21T05:57:32;19.00;84.84
67868;SHT31;54672;46.096;14.470;2022-08-21T05:59:58;19.05;84.22
67868;SHT31;54672;46.096;14.470;2022-08-21T06:02:23;19.05;83.55
67868;SHT31;54672;46.096;14.470;2022-08-21T06:04:48;18.97;83.48
67868;SHT31;54672;46.096;14.470;2022-08-21T06:07:14;18.83;84.04
67868;SHT31;54672;46.096;14.470;2022-08-21T06:09:40;18.73;84.74
67868;SHT31;54672;46.096;14.470;2022-08-21T06:12:07;18.64;85.15
67868;SHT31;54672;46.096;14.470;2022-08-21T06:14:34;18.70;85.00
67868;SHT31;54672;46.096;14.470;2022-08-21T06:17:04;18.80;84.91
67868;SHT31;54672;46.096;14.470;2022-08-21T06:19:30;18.88;84.34
67868;SHT31;54672;46.096;14.470;2022-08-21T06:21:56;18.87;84.17
67868;SHT31;54672;46.096;14.470;2022-08-21T06:24:21;18.87;84.21
67868;SHT31;54672;46.096;14.470;2022-08-21T06:26:47;18.83;84.40
67868;SHT31;54672;46.096;14.470;2022-08-21T06:29:13;18.87;84.42
67868;SHT31;54672;46.096;14.470;2022-08-21T06:31:41;18.93;84.33
67868;SHT31;54672;46.096;14.470;2022-08-21T06:34:07;19.04;83.75
67868;SHT31;54672;46.096;14.470;2022-08-21T06:36:32;19.18;82.87
67868;SHT31;54672;46.096;14.470;2022-08-21T06:38:57;19.29;82.47
67868;SHT31;54672;46.096;14.470;2022-08-21T06:41:23;19.38;82.17
67868;SHT31;54672;46.096;14.470;2022-08-21T06:43:48;19.59;81.70
67868;SHT31;54672;46.096;14.470;2022-08-21T06:46:14;19.74;82.48
67868;SHT31;54672;46.096;14.470;2022-08-21T06:48:39;19.70;83.17
67868;SHT31;54672;46.096;14.470;2022-08-21T06:51:04;19.93;82.24
67868;SHT31;54672;46.096;14.470;2022-08-21T06:53:30;20.00;82.34
67868;SHT31;54672;46.096;14.470;2022-08-21T06:55:55;19.79;82.98
67868;SHT31;54672;46.096;14.470;2022-08-21T06:58:21;20.20;82.09
67868;SHT31;54672;46.096;14.470;2022-08-21T07:00:48;20.30;81.39
67868;SHT31;54672;46.096;14.470;2022-08-21T07:03:21;20.44;80.79
67868;SHT31;54672;46.096;14.470;2022-08-21T07:05:47;20.58;80.31
67868;SHT31;54672;46.096;14.470;2022-08-21T07:08:13;20.81;79.49
67868;SHT31;54672;46.096;14.470;2022-08-21T07:10:38;21.10;78.21
67868;SHT31;54672;46.096;14.470;2022-08-21T07:13:03;21.44;76.82
67868;SHT31;54672;46.096;14.470;2022-08-21T07:15:29;21.34;77.31
67868;SHT31;54672;46.096;14.470;2022-08-21T07:17:55;22.15;75.20
67868;SHT31;54672;46.096;14.470;2022-08-21T07:20:20;21.90;74.43
67868;SHT31;54672;46.096;14.470;2022-08-21T07:22:46;21.78;75.30
67868;SHT31;54672;46.096;14.470;2022-08-21T07:25:11;22.09;74.48
67868;SHT31;54672;46.096;14.470;2022-08-21T07:27:36;22.31;73.47
67868;SHT31;54672;46.096;14.470;2022-08-21T07:30:04;22.39;72.57
67868;SHT31;54672;46.096;14.470;2022-08-21T07:32:30;22.29;73.30
67868;SHT31;54672;46.096;14.470;2022-08-21T07:34:56;22.29;73.44
67868;SHT31;54672;46.096;14.470;2022-08-21T07:37:24;22.32;72.86
67868;SHT31;54672;46.096;14.470;2022-08-21T07:39:50;22.26;73.47
67868;SHT31;54672;46.096;14.470;2022-08-21T07:42:16;22.36;72.30
67868;SHT31;54672;46.096;14.470;2022-08-21T07:44:42;22.31;72.43
67868;SHT31;54672;46.096;14.470;2022-08-21T07:47:08;22.06;73.14
67868;SHT31;54672;46.096;14.470;2022-08-21T07:49:34;22.08;73.00
67868;SHT31;54672;46.096;14.470;2022-08-21T07:51:59;22.04;73.57
67868;SHT31;54672;46.096;14.470;2022-08-21T07:54:25;22.35;72.14
67868;SHT31;54672;46.096;14.470;2022-08-21T07:56:51;22.94;70.27
67868;SHT31;54672;46.096;14.470;2022-08-21T07:59:19;23.51;66.70
67868;SHT31;54672;46.096;14.470;2022-08-21T08:01:45;24.00;64.90
67868;SHT31;54672;46.096;14.470;2022-08-21T08:04:10;24.49;64.25
67868;SHT31;54672;46.096;14.470;2022-08-21T08:06:35;25.14;62.94
67868;SHT31;54672;46.096;14.470;2022-08-21T08:09:02;25.02;62.32
67868;SHT31;54672;46.096;14.470;2022-08-21T08:11:29;24.60;62.40
67868;SHT31;54672;46.096;14.470;2022-08-21T08:13:55;24.17;63.65
67868;SHT31;54672;46.096;14.470;2022-08-21T08:16:22;23.58;65.34
67868;SHT31;54672;46.096;14.470;2022-08-21T08:18:48;23.55;66.34
67868;SHT31;54672;46.096;14.470;2022-08-21T08:21:14;23.57;65.74
67868;SHT31;54672;46.096;14.470;2022-08-21T08:23:40;23.95;65.35
67868;SHT31;54672;46.096;14.470;2022-08-21T08:26:05;24.13;65.15
67868;SHT31;54672;46.096;14.470;2022-08-21T08:28:31;24.30;64.47
67868;SHT31;54672;46.096;14.470;2022-08-21T08:30:58;24.30;65.21
67868;SHT31;54672;46.096;14.470;2022-08-21T08:33:23;24.09;65.35
67868;SHT31;54672;46.096;14.470;2022-08-21T08:35:50;24.08;64.79
67868;SHT31;54672;46.096;14.470;2022-08-21T08:38:17;24.12;64.79
67868;SHT31;54672;46.096;14.470;2022-08-21T08:43:39;23.78;65.22
67868;SHT31;54672;46.096;14.470;2022-08-21T08:46:15;23.72;65.88
67868;SHT31;54672;46.096;14.470;2022-08-21T08:48:54;23.75;65.65
67868;SHT31;54672;46.096;14.470;2022-08-21T08:51:25;23.82;65.50
67868;SHT31;54672;46.096;14.470;2022-08-21T08:53:56;23.96;64.48
67868;SHT31;54672;46.096;14.470;2022-08-21T08:56:28;24.09;64.81
67868;SHT31;54672;46.096;14.470;2022-08-21T08:58:57;24.16;64.34
67868;SHT31;54672;46.096;14.470;2022-08-21T09:01:24;24.61;63.70
67868;SHT31;54672;46.096;14.470;2022-08-21T09:03:50;24.81;62.08
67868;SHT31;54672;46.096;14.470;2022-08-21T09:25:29;25.63;60.92
67868;SHT31;54672;46.096;14.470;2022-08-21T09:27:55;25.70;56.49
67868;SHT31;54672;46.096;14.470;2022-08-21T09:30:26;26.20;57.62
67868;SHT31;54672;46.096;14.470;2022-08-21T09:32:53;25.63;53.98
67868;SHT31;54672;46.096;14.470;2022-08-21T09:35:20;25.63;53.03
67868;SHT31;54672;46.096;14.470;2022-08-21T09:40:26;26.37;54.01
67868;SHT31;54672;46.096;14.470;2022-08-21T09:42:58;26.79;50.27
67868;SHT31;54672;46.096;14.470;2022-08-21T09:45:24;27.14;51.91
67868;SHT31;54672;46.096;14.470;2022-08-21T09:47:49;27.13;52.33
67868;SHT31;54672;46.096;14.470;2022-08-21T09:50:21;27.29;51.40
67868;SHT31;54672;46.096;14.470;2022-08-21T09:52:53;27.18;48.65
67868;SHT31;54672;46.096;14.470;2022-08-21T09:55:33;26.95;48.11
67868;SHT31;54672;46.096;14.470;2022-08-21T09:58:20;26.76;47.86
67868;SHT31;54672;46.096;14.470;2022-08-21T10:00:56;26.44;51.55
67868;SHT31;54672;46.096;14.470;2022-08-21T10:03:22;25.77;53.85
67868;SHT31;54672;46.096;14.470;2022-08-21T10:06:10;25.87;53.85
67868;SHT31;54672;46.096;14.470;2022-08-21T10:08:45;26.32;50.81
67868;SHT31;54672;46.096;14.470;2022-08-21T10:11:16;25.73;50.65
67868;SHT31;54672;46.096;14.470;2022-08-21T10:16:51;26.16;51.09
67868;SHT31;54672;46.096;14.470;2022-08-21T10:19:29;26.68;49.82
67868;SHT31;54672;46.096;14.470;2022-08-21T10:25:11;26.55;51.35
67868;SHT31;54672;46.096;14.470;2022-08-21T10:36:21;27.36;48.21
67868;SHT31;54672;46.096;14.470;2022-08-21T10:41:51;27.43;48.39
67868;SHT31;54672;46.096;14.470;2022-08-21T10:47:07;27.41;48.45
67868;SHT31;54672;46.096;14.470;2022-08-21T10:49:44;27.38;48.58
67868;SHT31;54672;46.096;14.470;2022-08-21T10:54:56;26.69;49.89
67868;SHT31;54672;46.096;14.470;2022-08-21T10:57:32;26.62;51.50
67868;SHT31;54672;46.096;14.470;2022-08-21T11:03:52;27.46;47.65
67868;SHT31;54672;46.096;14.470;2022-08-21T11:05:54;27.57;48.67
67868;SHT31;54672;46.096;14.470;2022-08-21T11:08:31;27.99;48.46
67868;SHT31;54672;46.096;14.470;2022-08-21T11:11:08;28.23;46.95
67868;SHT31;54672;46.096;14.470;2022-08-21T11:13:41;27.31;48.08
67868;SHT31;54672;46.096;14.470;2022-08-21T11:16:17;27.67;47.59
67868;SHT31;54672;46.096;14.470;2022-08-21T11:18:49;28.16;46.10
67868;SHT31;54672;46.096;14.470;2022-08-21T11:23:52;27.24;42.47
67868;SHT31;54672;46.096;14.470;2022-08-21T11:26:35;27.81;42.19
67868;SHT31;54672;46.096;14.470;2022-08-21T11:29:13;27.33;45.26
67868;SHT31;54672;46.096;14.470;2022-08-21T11:32:06;27.85;42.97
67868;SHT31;54672;46.096;14.470;2022-08-21T11:34:51;28.20;40.84
67868;SHT31;54672;46.096;14.470;2022-08-21T11:41:00;27.55;39.46
67868;SHT31;54672;46.096;14.470;2022-08-21T11:43:38;27.71;40.93
67868;SHT31;54672;46.096;14.470;2022-08-21T11:51:46;29.34;39.74
67868;SHT31;54672;46.096;14.470;2022-08-21T11:57:15;27.47;42.58
67868;SHT31;54672;46.096;14.470;2022-08-21T11:59:51;27.36;39.87
67868;SHT31;54672;46.096;14.470;2022-08-21T12:02:21;27.67;42.00
67868;SHT31;54672;46.096;14.470;2022-08-21T12:04:53;27.77;41.98
67868;SHT31;54672;46.096;14.470;2022-08-21T12:09:56;28.31;39.58
67868;SHT31;54672;46.096;14.470;2022-08-21T12:12:24;28.36;39.69
67868;SHT31;54672;46.096;14.470;2022-08-21T12:15:03;27.89;40.33
67868;SHT31;54672;46.096;14.470;2022-08-21T12:17:36;27.51;39.92
67868;SHT31;54672;46.096;14.470;2022-08-21T12:23:19;26.82;40.85
67868;SHT31;54672;46.096;14.470;2022-08-21T12:26:03;26.95;40.34
67868;SHT31;54672;46.096;14.470;2022-08-21T12:28:34;26.66;41.33
67868;SHT31;54672;46.096;14.470;2022-08-21T12:31:00;26.52;42.19
67868;SHT31;54672;46.096;14.470;2022-08-21T12:36:20;25.88;43.45
67868;SHT31;54672;46.096;14.470;2022-08-21T12:38:50;25.91;44.61
67868;SHT31;54672;46.096;14.470;2022-08-21T12:41:20;25.83;44.07
67868;SHT31;54672;46.096;14.470;2022-08-21T12:43:51;25.73;44.73
67868;SHT31;54672;46.096;14.470;2022-08-21T12:46:27;25.62;44.62
67868;SHT31;54672;46.096;14.470;2022-08-21T12:48:58;25.51;43.87
67868;SHT31;54672;46.096;14.470;2022-08-21T12:51:48;25.36;44.31
67868;SHT31;54672;46.096;14.470;2022-08-21T12:54:25;25.32;45.23
67868;SHT31;54672;46.096;14.470;2022-08-21T12:56:59;25.30;45.41
67868;SHT31;54672;46.096;14.470;2022-08-21T12:59:25;25.23;45.37
67868;SHT31;54672;46.096;14.470;2022-08-21T13:01:52;25.36;44.47
67868;SHT31;54672;46.096;14.470;2022-08-21T13:04:25;25.26;45.30
67868;SHT31;54672;46.096;14.470;2022-08-21T13:06:53;25.28;44.54
67868;SHT31;54672;46.096;14.470;2022-08-21T13:09:24;25.14;45.77
67868;SHT31;54672;46.096;14.470;2022-08-21T13:11:51;25.07;45.55
67868;SHT31;54672;46.096;14.470;2022-08-21T13:16:55;24.84;47.23
67868;SHT31;54672;46.096;14.470;2022-08-21T13:19:21;24.75;47.23
67868;SHT31;54672;46.096;14.470;2022-08-21T13:21:46;24.72;46.96
67868;SHT31;54672;46.096;14.470;2022-08-21T13:24:24;24.74;46.80
67868;SHT31;54672;46.096;14.470;2022-08-21T13:26:53;24.71;46.80
67868;SHT31;54672;46.096;14.470;2022-08-21T13:29:23;24.72;48.17
67868;SHT31;54672;46.096;14.470;2022-08-21T13:31:59;24.60;46.44
67868;SHT31;54672;46.096;14.470;2022-08-21T13:34:29;24.56;47.23
67868;SHT31;54672;46.096;14.470;2022-08-21T13:36:58;24.47;48.09
67868;SHT31;54672;46.096;14.470;2022-08-21T13:39:24;24.46;47.35
67868;SHT31;54672;46.096;14.470;2022-08-21T13:41:55;24.44;47.80
67868;SHT31;54672;46.096;14.470;2022-08-21T13:44:24;24.39;48.06
67868;SHT31;54672;46.096;14.470;2022-08-21T13:46:58;24.41;46.90
67868;SHT31;54672;46.096;14.470;2022-08-21T13:49:31;24.34;47.61
67868;SHT31;54672;46.096;14.470;2022-08-21T13:51:58;24.30;47.99
67868;SHT31;54672;46.096;14.470;2022-08-21T13:54:39;24.30;47.63
67868;SHT31;54672;46.096;14.470;2022-08-21T13:57:16;24.29;48.71
67868;SHT31;54672;46.096;14.470;2022-08-21T13:59:41;24.29;49.67
67868;SHT31;54672;46.096;14.470;2022-08-21T14:02:22;24.13;50.91
67868;SHT31;54672;46.096;14.470;2022-08-21T14:04:57;23.96;52.15
67868;SHT31;54672;46.096;14.470;2022-08-21T14:07:36;23.86;51.99
67868;SHT31;54672;46.096;14.470;2022-08-21T14:10:12;23.88;52.01
67868;SHT31;54672;46.096;14.470;2022-08-21T14:12:43;24.00;50.64
67868;SHT31;54672;46.096;14.470;2022-08-21T14:15:14;24.06;50.61
67868;SHT31;54672;46.096;14.470;2022-08-21T14:17:41;23.93;50.87
67868;SHT31;54672;46.096;14.470;2022-08-21T14:20:10;24.08;51.80
67868;SHT31;54672;46.096;14.470;2022-08-21T14:25:26;24.30;47.90
67868;SHT31;54672;46.096;14.470;2022-08-21T14:27:56;24.43;47.30
67868;SHT31;54672;46.096;14.470;2022-08-21T14:30:35;24.51;47.16
67868;SHT31;54672;46.096;14.470;2022-08-21T14:33:04;24.64;47.59
67868;SHT31;54672;46.096;14.470;2022-08-21T14:35:33;24.30;48.92
67868;SHT31;54672;46.096;14.470;2022-08-21T14:37:58;24.10;50.05
67868;SHT31;54672;46.096;14.470;2022-08-21T14:40:24;24.09;51.35
67868;SHT31;54672;46.096;14.470;2022-08-21T14:42:51;23.92;50.94
67868;SHT31;54672;46.096;14.470;2022-08-21T14:45:22;24.05;50.19
67868;SHT31;54672;46.096;14.470;2022-08-21T14:47:48;24.09;49.67
67868;SHT31;54672;46.096;14.470;2022-08-21T14:50:14;24.21;49.49
67868;SHT31;54672;46.096;14.470;2022-08-21T14:52:40;24.37;48.71
67868;SHT31;54672;46.096;14.470;2022-08-21T14:55:07;24.43;49.02
67868;SHT31;54672;46.096;14.470;2022-08-21T14:57:35;24.44;49.58
67868;SHT31;54672;46.096;14.470;2022-08-21T15:00:03;24.44;48.77
67868;SHT31;54672;46.096;14.470;2022-08-21T15:02:30;24.50;49.40
67868;SHT31;54672;46.096;14.470;2022-08-21T15:04:55;24.51;48.59
67868;SHT31;54672;46.096;14.470;2022-08-21T15:07:20;24.51;48.73
67868;SHT31;54672;46.096;14.470;2022-08-21T15:09:46;24.40;49.54
67868;SHT31;54672;46.096;14.470;2022-08-21T15:12:12;24.56;48.92
67868;SHT31;54672;46.096;14.470;2022-08-21T15:14:39;24.61;48.73
67868;SHT31;54672;46.096;14.470;2022-08-21T15:17:06;24.63;48.73
67868;SHT31;54672;46.096;14.470;2022-08-21T15:19:32;24.57;49.30
67868;SHT31;54672;46.096;14.470;2022-08-21T15:21:58;24.65;49.69
67868;SHT31;54672;46.096;14.470;2022-08-21T15:24:23;24.44;49.43
67868;SHT31;54672;46.096;14.470;2022-08-21T15:26:49;24.74;49.62
67868;SHT31;54672;46.096;14.470;2022-08-21T15:29:15;24.89;49.96
67868;SHT31;54672;46.096;14.470;2022-08-21T15:34:21;24.91;49.91
67868;SHT31;54672;46.096;14.470;2022-08-21T15:36:47;24.74;48.55
67868;SHT31;54672;46.096;14.470;2022-08-21T15:39:13;24.77;49.32
67868;SHT31;54672;46.096;14.470;2022-08-21T15:41:39;24.47;50.90
67868;SHT31;54672;46.096;14.470;2022-08-21T15:44:04;24.63;50.88
67868;SHT31;54672;46.096;14.470;2022-08-21T15:46:31;24.65;50.33
67868;SHT31;54672;46.096;14.470;2022-08-21T15:48:56;24.70;49.65
67868;SHT31;54672;46.096;14.470;2022-08-21T15:51:21;24.72;49.91
67868;SHT31;54672;46.096;14.470;2022-08-21T15:53:47;24.81;47.94
67868;SHT31;54672;46.096;14.470;2022-08-21T15:56:24;24.81;48.11
67868;SHT31;54672;46.096;14.470;2022-08-21T15:58:53;24.75;49.51
67868;SHT31;54672;46.096;14.470;2022-08-21T16:01:22;24.40;50.86
67868;SHT31;54672;46.096;14.470;2022-08-21T16:03:49;24.49;49.78
67868;SHT31;54672;46.096;14.470;2022-08-21T16:06:17;24.12;50.47
67868;SHT31;54672;46.096;14.470;2022-08-21T16:08:42;24.16;51.56
67868;SHT31;54672;46.096;14.470;2022-08-21T16:11:08;24.05;52.72
67868;SHT31;54672;46.096;14.470;2022-08-21T16:13:36;23.93;53.03
67868;SHT31;54672;46.096;14.470;2022-08-21T16:16:04;23.85;54.34
67868;SHT31;54672;46.096;14.470;2022-08-21T16:18:30;23.78;54.90
67868;SHT31;54672;46.096;14.470;2022-08-21T16:20:55;23.83;55.32
67868;SHT31;54672;46.096;14.470;2022-08-21T16:23:21;23.99;53.52
67868;SHT31;54672;46.096;14.470;2022-08-21T16:25:46;24.09;53.90
67868;SHT31;54672;46.096;14.470;2022-08-21T16:28:14;24.03;54.05
67868;SHT31;54672;46.096;14.470;2022-08-21T16:30:42;24.12;53.44
67868;SHT31;54672;46.096;14.470;2022-08-21T16:33:33;24.13;53.67
67868;SHT31;54672;46.096;14.470;2022-08-21T16:35:56;24.19;54.29
67868;SHT31;54672;46.096;14.470;2022-08-21T16:38:22;24.19;54.89
67868;SHT31;54672;46.096;14.470;2022-08-21T16:40:48;24.21;55.28
67868;SHT31;54672;46.096;14.470;2022-08-21T16:43:14;24.20;55.63
67868;SHT31;54672;46.096;14.470;2022-08-21T16:45:42;24.29;55.68
67868;SHT31;54672;46.096;14.470;2022-08-21T16:48:08;24.24;55.46